Time;durP1;ratioP1;P1;durP2;ratioP2;P2;SDS_P1;SDS_P2;PMS_P1;PMS_P2;Temp;Humidity;BMP_temperature;BMP_pressure;BME280_temperature;BME280_humidity;BME280_pressure;Samples;Min_cycle;Max_cycle;Signal;HPM_P1;HPM_P2
2023/04/25 00:01:02;;;;;;;35.67;5.45;;;7.00;99.90;;;;;;4855859;29;20046;-95
2023/04/25 00:03:29;;;;;;;33.78;5.22;;;6.70;99.90;;;;;;4853890;29;20054;-93
2023/04/25 00:05:57;;;;;;;31.85;4.70;;;6.70;99.90;;;;;;4846099;29;20061;-95
2023/04/25 00:08:46;;;;;;;28.05;4.93;;;6.70;99.90;;;;;;4832755;29;20054;-94
2023/04/25 00:11:12;;;;;;;29.17;5.25;;;6.70;99.90;;;;;;4842915;29;20057;-93
2023/04/25 00:14:01;;;;;;;31.80;5.47;;;6.60;99.90;;;;;;4843964;29;20063;-93
2023/04/25 00:16:30;;;;;;;22.05;4.40;;;6.60;99.90;;;;;;4842688;29;20061;-94
2023/04/25 00:19:16;;;;;;;23.02;4.20;;;6.70;99.90;;;;;;4857003;29;20053;-94
2023/04/25 00:21:41;;;;;;;27.40;5.30;;;6.00;99.90;;;;;;4843323;29;20053;-93
2023/04/25 00:24:07;;;;;;;30.23;5.15;;;6.60;99.90;;;;;;4843438;29;20045;-93
2023/04/25 00:26:35;;;;;;;25.27;4.45;;;6.60;99.90;;;;;;4847833;29;20041;-92
2023/04/25 00:29:01;;;;;;;27.67;5.10;;;6.60;99.90;;;;;;4843331;29;20045;-93
2023/04/25 00:31:30;;;;;;;32.35;4.88;;;6.60;99.90;;;;;;4842367;29;20049;-94
2023/04/25 00:34:01;;;;;;;24.25;3.92;;;6.60;99.90;;;;;;4843364;29;20053;-94
2023/04/25 00:36:27;;;;;;;18.15;3.90;;;6.60;99.90;;;;;;4854740;29;20054;-94
2023/04/25 00:38:54;;;;;;;20.90;4.13;;;6.40;99.90;;;;;;4843482;29;20116;-93
2023/04/25 00:41:23;;;;;;;20.02;3.40;;;6.30;99.90;;;;;;4842890;29;20049;-95
2023/04/25 00:43:52;;;;;;;20.48;3.35;;;6.20;99.90;;;;;;4843216;29;20050;-94
2023/04/25 00:46:20;;;;;;;19.25;3.08;;;6.20;99.90;;;;;;4843924;29;20048;-95
2023/04/25 00:48:46;;;;;;;17.33;2.97;;;5.50;99.90;;;;;;4850205;29;20045;-92
2023/04/25 00:51:18;;;;;;;19.35;2.97;;;6.20;99.90;;;;;;4842422;29;20060;-93
2023/04/25 00:53:49;;;;;;;20.15;3.03;;;6.10;99.90;;;;;;4855034;29;20151;-94
2023/04/25 00:56:40;;;;;;;21.38;3.55;;;6.10;99.90;;;;;;4852494;29;20053;-94
2023/04/25 00:59:06;;;;;;;17.15;3.70;;;6.10;99.90;;;;;;4850800;29;20061;-93
2023/04/25 01:01:32;;;;;;;26.55;3.35;;;6.10;99.90;;;;;;4841740;29;20056;-93
2023/04/25 01:03:59;;;;;;;16.75;3.20;;;6.20;99.90;;;;;;4843130;29;20081;-92
2023/04/25 01:06:24;;;;;;;19.55;3.00;;;6.10;99.90;;;;;;4841998;29;20085;-94
2023/04/25 01:08:51;;;;;;;19.65;3.63;;;6.80;99.90;;;;;;4839969;29;20548;-93
2023/04/25 01:11:17;;;;;;;26.75;3.70;;;6.20;99.90;;;;;;4833329;29;20057;-92
2023/04/25 01:13:46;;;;;;;18.25;3.30;;;6.20;99.90;;;;;;4845575;29;20041;-93
2023/04/25 01:16:12;;;;;;;21.98;2.85;;;6.20;99.90;;;;;;4851264;29;20054;-91
2023/04/25 01:18:41;;;;;;;16.98;3.10;;;6.20;99.90;;;;;;4838679;29;20050;-91
2023/04/25 01:21:09;;;;;;;21.98;3.53;;;6.20;99.90;;;;;;4834646;29;20642;-91
2023/04/25 01:23:36;;;;;;;22.27;4.57;;;6.20;99.90;;;;;;4856855;29;20038;-92
2023/04/25 01:26:02;;;;;;;22.88;3.42;;;6.20;99.90;;;;;;4850563;29;20559;-92
2023/04/25 01:28:32;;;;;;;15.77;2.85;;;6.60;99.90;;;;;;4844817;29;20517;-91
2023/04/25 01:30:59;;;;;;;19.20;3.42;;;6.20;99.90;;;;;;4857340;29;20045;-92
2023/04/25 01:33:25;;;;;;;19.48;3.85;;;6.20;99.90;;;;;;4855335;29;20053;-92
2023/04/25 01:35:51;;;;;;;24.73;3.05;;;6.20;99.90;;;;;;4842588;29;20050;-93
2023/04/25 01:38:17;;;;;;;24.58;3.67;;;7.20;99.90;;;;;;4842406;29;20053;-93
2023/04/25 01:40:47;;;;;;;19.60;3.45;;;6.60;99.90;;;;;;4841862;29;20053;-92
2023/04/25 01:43:14;;;;;;;20.73;3.17;;;6.20;99.90;;;;;;4841922;29;20583;-93
2023/04/25 01:45:41;;;;;;;22.13;4.00;;;6.10;99.90;;;;;;4860843;29;20052;-92
2023/04/25 01:48:12;;;;;;;18.55;3.00;;;6.20;99.90;;;;;;4857941;29;20231;-93
2023/04/25 01:50:39;;;;;;;18.75;2.97;;;6.20;99.90;;;;;;4857101;29;20057;-94
2023/04/25 01:53:05;;;;;;;16.00;3.25;;;6.30;99.90;;;;;;4845970;29;20803;-93
2023/04/25 01:55:31;;;;;;;23.80;3.60;;;6.90;99.90;;;;;;4844329;29;20099;-93
2023/04/25 01:57:59;;;;;;;20.23;3.22;;;6.10;99.90;;;;;;4833632;29;20092;-91
2023/04/25 02:00:25;;;;;;;24.95;4.65;;;6.50;99.90;;;;;;4860141;29;20037;-91
2023/04/25 02:02:53;;;;;;;21.05;3.63;;;6.10;99.90;;;;;;4845407;29;20048;-92
2023/04/25 02:05:20;;;;;;;20.98;3.60;;;6.60;99.90;;;;;;4832245;29;20130;-93
2023/04/25 02:07:47;;;;;;;24.15;3.88;;;6.10;99.90;;;;;;4833813;29;20045;-92
2023/04/25 02:10:12;;;;;;;27.02;3.58;;;6.00;99.90;;;;;;4844262;29;20053;-91
2023/04/25 02:12:45;;;;;;;24.40;3.90;;;6.00;99.90;;;;;;4841176;29;20045;-93
2023/04/25 02:15:11;;;;;;;18.52;3.03;;;6.00;99.90;;;;;;4860990;29;20073;-92
2023/04/25 02:17:37;;;;;;;24.58;3.80;;;5.90;99.90;;;;;;4862235;29;20446;-92
2023/04/25 02:20:03;;;;;;;25.20;4.07;;;5.80;99.90;;;;;;4844626;29;20112;-93
2023/04/25 02:22:30;;;;;;;22.75;3.55;;;5.70;99.90;;;;;;4844960;29;20045;-92
2023/04/25 02:24:56;;;;;;;20.02;3.38;;;5.40;99.90;;;;;;4845032;29;20068;-93
2023/04/25 02:27:22;;;;;;;24.88;3.80;;;5.70;99.90;;;;;;4844987;29;20054;-92
2023/04/25 02:29:47;;;;;;;21.52;4.45;;;5.30;99.90;;;;;;4844705;29;20054;-92
2023/04/25 02:32:13;;;;;;;23.42;3.72;;;6.60;99.90;;;;;;4844235;29;20060;-92
2023/04/25 02:34:39;;;;;;;24.23;3.70;;;5.70;99.90;;;;;;4844523;29;20059;-92
2023/04/25 02:37:05;;;;;;;23.77;5.32;;;6.50;99.90;;;;;;4844906;29;20527;-93
2023/04/25 02:39:30;;;;;;;29.40;3.88;;;5.70;99.90;;;;;;4832392;29;20128;-93
2023/04/25 02:41:56;;;;;;;20.38;3.63;;;5.70;99.90;;;;;;4844737;29;20140;-93
2023/04/25 02:44:22;;;;;;;22.50;3.13;;;5.70;99.90;;;;;;4844409;29;20042;-92
2023/04/25 02:46:48;;;;;;;30.88;3.03;;;5.10;99.90;;;;;;4841234;29;20057;-92
2023/04/25 02:49:14;;;;;;;23.10;3.58;;;5.60;99.90;;;;;;4855462;29;20072;-92
2023/04/25 02:51:40;;;;;;;23.20;3.20;;;6.70;99.90;;;;;;4854604;29;20045;-92
2023/04/25 02:54:06;;;;;;;20.35;3.42;;;5.70;99.90;;;;;;4844475;29;20050;-92
2023/04/25 02:56:32;;;;;;;20.73;3.33;;;5.60;99.90;;;;;;4851784;29;20056;-91
2023/04/25 02:58:57;;;;;;;18.13;2.78;;;5.60;99.90;;;;;;4847547;29;20061;-91
2023/04/25 03:01:26;;;;;;;21.30;4.18;;;6.10;99.90;;;;;;4843270;29;20122;-91
2023/04/25 03:03:51;;;;;;;14.68;2.58;;;5.80;99.90;;;;;;4844578;29;20173;-91
2023/04/25 03:06:17;;;;;;;22.10;3.53;;;5.80;99.90;;;;;;4843622;29;20093;-92
2023/04/25 03:08:43;;;;;;;18.25;3.20;;;6.40;99.90;;;;;;4846441;29;20049;-92
2023/04/25 03:11:09;;;;;;;13.95;2.50;;;5.50;99.90;;;;;;4862339;29;20470;-91
2023/04/25 03:13:37;;;;;;;17.25;3.33;;;5.50;99.90;;;;;;4848245;29;20077;-92
2023/04/25 03:16:02;;;;;;;21.65;3.25;;;5.50;99.90;;;;;;4843895;29;20045;-92
2023/04/25 03:18:28;;;;;;;17.45;3.05;;;5.50;99.90;;;;;;4857013;29;20064;-91
2023/04/25 03:20:54;;;;;;;16.00;3.38;;;5.40;99.90;;;;;;4854182;29;20132;-92
2023/04/25 03:23:22;;;;;;;18.98;3.00;;;5.40;99.90;;;;;;4843542;29;20049;-92
2023/04/25 03:25:48;;;;;;;22.52;2.63;;;6.40;99.90;;;;;;4852435;29;20132;-92
2023/04/25 03:28:14;;;;;;;18.77;2.67;;;5.30;99.90;;;;;;4847515;29;20619;-92
2023/04/25 03:30:40;;;;;;;15.82;3.13;;;5.30;99.90;;;;;;4844273;29;20049;-91
2023/04/25 03:33:06;;;;;;;16.40;2.97;;;5.20;99.90;;;;;;4843686;29;20470;-91
2023/04/25 03:35:32;;;;;;;22.70;2.88;;;5.70;99.90;;;;;;4851475;29;20049;-92
2023/04/25 03:37:58;;;;;;;28.35;3.28;;;5.10;99.90;;;;;;4847847;29;20109;-92
2023/04/25 03:40:24;;;;;;;20.10;2.90;;;5.00;99.90;;;;;;4843011;29;20057;-91
2023/04/25 03:42:55;;;;;;;17.40;2.75;;;5.00;99.90;;;;;;4831301;29;20054;-91
2023/04/25 03:45:23;;;;;;;20.00;2.88;;;5.50;99.90;;;;;;4842821;29;20037;-92
2023/04/25 03:47:51;;;;;;;16.48;2.63;;;5.30;99.90;;;;;;4847956;29;20065;-92
2023/04/25 03:50:17;;;;;;;21.73;2.63;;;4.90;99.90;;;;;;4858266;29;20077;-92
2023/04/25 03:52:43;;;;;;;14.63;2.92;;;4.90;99.90;;;;;;4861667;29;20072;-90
2023/04/25 03:55:11;;;;;;;16.65;2.60;;;5.50;99.90;;;;;;4851953;29;20474;-91
2023/04/25 03:57:37;;;;;;;23.08;3.20;;;4.90;99.90;;;;;;4838354;29;20077;-92
2023/04/25 04:00:04;;;;;;;18.45;3.70;;;4.90;99.90;;;;;;4861215;29;20053;-92
2023/04/25 04:02:42;;;;;;;;;;;;;;;;;;;;;
2023/04/25 04:05:12;;;;;;;18.90;3.53;;;4.90;99.90;;;;;;4876872;29;20077;-92
2023/04/25 04:07:39;;;;;;;19.60;3.45;;;5.80;99.90;;;;;;4854514;29;20054;-91
2023/04/25 04:10:11;;;;;;;14.18;2.97;;;5.40;99.90;;;;;;4841888;29;20570;-92
2023/04/25 04:12:38;;;;;;;20.05;3.15;;;5.00;99.90;;;;;;4831727;29;20050;-92
2023/04/25 04:15:07;;;;;;;17.23;3.28;;;5.00;99.90;;;;;;4857975;29;20088;-91
2023/04/25 04:17:34;;;;;;;14.95;3.47;;;4.70;99.90;;;;;;4841881;29;20041;-91
2023/04/25 04:20:00;;;;;;;24.25;3.08;;;4.70;99.90;;;;;;4853988;29;20045;-91
2023/04/25 04:22:25;;;;;;;18.75;2.70;;;4.70;99.90;;;;;;4859873;29;20116;-91
2023/04/25 04:24:51;;;;;;;16.15;2.97;;;5.20;99.90;;;;;;4847733;29;20049;-92
2023/04/25 04:27:28;;;;;;;15.05;2.97;;;5.60;99.90;;;;;;4844609;29;20057;-91
2023/04/25 04:29:57;;;;;;;18.08;3.42;;;4.50;99.90;;;;;;4836750;29;20110;-91
2023/04/25 04:32:33;;;;;;;17.65;2.75;;;4.50;99.90;;;;;;4833361;29;20112;-91
2023/04/25 04:34:59;;;;;;;12.00;2.65;;;4.40;99.90;;;;;;4848416;29;20044;-91
2023/04/25 04:37:28;;;;;;;19.20;3.38;;;4.40;99.90;;;;;;4850875;29;20116;-90
2023/04/25 04:39:54;;;;;;;21.25;3.13;;;4.40;99.90;;;;;;4846206;29;20125;-89
2023/04/25 04:42:25;;;;;;;20.80;3.50;;;4.40;99.90;;;;;;4850433;29;20136;-90
2023/04/25 04:45:13;;;;;;;15.75;2.97;;;4.70;99.90;;;;;;4883880;23;20612;-91
2023/04/25 04:47:42;;;;;;;21.30;2.65;;;4.30;99.90;;;;;;4862918;29;20048;-91
2023/04/25 04:50:10;;;;;;;22.27;3.15;;;5.50;99.90;;;;;;4848392;29;20469;-94
2023/04/25 04:52:59;;;;;;;23.50;3.90;;;4.50;99.90;;;;;;4854889;29;20045;-93
2023/04/25 04:59:54;;;;;;;;;;;;;;;;;;;;;
2023/04/25 05:02:29;;;;;;;;;;;;;;;;;;;;;
2023/04/25 05:05:45;;;;;;;;;;;;;;;;;;;;;
2023/04/25 05:09:16;;;;;;;14.00;2.55;;;4.50;99.90;;;;;;4899500;29;20046;-94
2023/04/25 05:11:59;;;;;;;;;;;;;;;;;;;;;
2023/04/25 05:15:12;;;;;;;7.25;1.50;;;5.50;99.90;;;;;;4876238;29;20052;-94
2023/04/25 05:18:02;;;;;;;8.95;1.92;;;5.00;99.90;;;;;;4841323;29;20048;-92
2023/04/25 05:28:41;;;;;;;9.23;1.30;;;5.10;99.90;;;;;;4877454;29;20053;-92
2023/04/25 05:31:12;;;;;;;10.98;1.38;;;5.20;99.90;;;;;;4792694;29;20490;-91
2023/04/25 05:33:41;;;;;;;6.95;1.33;;;5.00;99.90;;;;;;4851014;29;20490;-91
2023/04/25 05:40:18;;;;;;;8.90;1.42;;;5.00;99.90;;;;;;4811906;29;20144;-91
2023/04/25 05:42:46;;;;;;;9.45;1.52;;;5.00;99.90;;;;;;4831859;29;20136;-90
2023/04/25 05:45:14;;;;;;;8.10;1.70;;;5.10;99.90;;;;;;4855860;29;20128;-91
2023/04/25 05:47:40;;;;;;;14.13;2.22;;;5.30;99.90;;;;;;4845604;29;20812;-91
2023/04/25 05:50:07;;;;;;;10.70;1.33;;;5.40;99.90;;;;;;4837993;29;20095;-91
2023/04/25 05:52:41;;;;;;;13.00;2.15;;;5.40;99.90;;;;;;4856334;29;20069;-91
2023/04/25 05:55:15;;;;;;;12.80;1.70;;;5.50;99.90;;;;;;4845049;29;20169;-91
2023/04/25 05:57:44;;;;;;;13.30;1.80;;;5.50;99.90;;;;;;4844851;29;20056;-91
2023/04/25 06:00:12;;;;;;;16.42;1.85;;;5.20;99.90;;;;;;4844504;29;20053;-94
2023/04/25 06:02:38;;;;;;;12.45;1.90;;;5.60;99.90;;;;;;4844309;29;20049;-92
2023/04/25 06:05:06;;;;;;;12.80;2.05;;;6.30;99.90;;;;;;4846630;29;20053;-94
2023/04/25 06:07:32;;;;;;;14.98;1.80;;;5.30;99.90;;;;;;4847219;29;20118;-96
2023/04/25 06:10:08;;;;;;;;;;;;;;;;;;;;;
2023/04/25 06:12:38;;;;;;;15.77;2.33;;;4.70;99.90;;;;;;4862548;29;20063;-96
2023/04/25 06:15:05;;;;;;;12.98;1.70;;;5.90;99.90;;;;;;4834558;29;20062;-96
2023/04/25 06:17:30;;;;;;;10.75;1.92;;;5.50;99.90;;;;;;4846365;29;20056;-94
2023/04/25 06:20:03;;;;;;;8.43;1.48;;;5.50;99.90;;;;;;4857112;29;20053;-94
2023/04/25 06:22:29;;;;;;;5.88;1.50;;;5.60;99.90;;;;;;4837280;29;20075;-94
2023/04/25 06:24:58;;;;;;;4.63;1.13;;;5.60;99.90;;;;;;4846879;29;20104;-93
2023/04/25 06:27:25;;;;;;;6.78;1.00;;;5.60;99.90;;;;;;4837737;29;20066;-94
2023/04/25 06:29:50;;;;;;;5.55;1.45;;;5.60;99.90;;;;;;4844163;29;20485;-93
2023/04/25 06:32:17;;;;;;;12.98;1.58;;;5.70;99.90;;;;;;4839957;29;20128;-92
2023/04/25 06:34:44;;;;;;;7.90;1.60;;;5.70;99.90;;;;;;4852122;29;20476;-94
2023/04/25 06:37:09;;;;;;;7.55;1.90;;;5.90;99.90;;;;;;4849553;29;20116;-92
2023/04/25 06:39:35;;;;;;;12.35;1.58;;;6.00;99.90;;;;;;4848163;29;20050;-94
2023/04/25 06:42:01;;;;;;;13.60;2.22;;;6.20;99.90;;;;;;4845690;29;20044;-95
2023/04/25 06:44:29;;;;;;;11.98;1.50;;;6.40;99.90;;;;;;4847400;29;20045;-93
2023/04/25 06:46:55;;;;;;;12.68;2.13;;;6.70;99.90;;;;;;4844006;29;20502;-93
2023/04/25 06:49:22;;;;;;;11.07;1.80;;;8.00;99.90;;;;;;4847740;29;20056;-92
2023/04/25 06:51:48;;;;;;;10.65;1.67;;;7.10;99.90;;;;;;4838345;29;20052;-92
2023/04/25 06:54:16;;;;;;;16.33;2.40;;;7.30;99.90;;;;;;4850141;29;20047;-93
2023/04/25 06:56:53;;;;;;;12.73;2.10;;;7.30;99.90;;;;;;4862244;29;20056;-92
2023/04/25 06:59:32;;;;;;;21.10;3.33;;;7.40;99.90;;;;;;4847584;29;20049;-94
2023/04/25 07:02:52;;;;;;;16.75;2.60;;;7.40;99.90;;;;;;4859993;29;20111;-92
2023/04/25 07:05:13;;;;;;;17.45;2.22;;;7.50;99.90;;;;;;4858617;29;20056;-93
2023/04/25 07:10:45;;;;;;;;;;;;;;;;;;;;;
2023/04/25 07:13:35;;;;;;;11.88;2.38;;;7.00;99.90;;;;;;4878918;29;20049;-94
2023/04/25 07:16:17;;;;;;;15.68;2.10;;;7.10;99.90;;;;;;4866018;29;20080;-94
2023/04/25 07:18:51;;;;;;;16.27;2.28;;;6.50;99.90;;;;;;4852189;29;20072;-95
2023/04/25 07:21:17;;;;;;;10.13;1.98;;;7.20;99.90;;;;;;4845200;29;20056;-94
2023/04/25 07:23:46;;;;;;;14.35;2.33;;;7.20;99.90;;;;;;4834006;29;20049;-93
2023/04/25 07:26:22;;;;;;;;;;;;;;;;;;;;;
2023/04/25 07:29:24;;;;;;;;;;;;;;;;;;;;;
2023/04/25 07:32:39;;;;;;;12.20;1.60;;;7.60;99.90;;;;;;4872223;29;20089;-93
2023/04/25 07:35:07;;;;;;;10.63;1.55;;;7.90;99.90;;;;;;4861731;29;20059;-94
2023/04/25 07:40:10;;;;;;;12.00;1.30;;;8.00;99.90;;;;;;4911785;23;20061;-95
2023/04/25 07:42:45;;;;;;;8.55;1.40;;;7.90;99.90;;;;;;4845366;29;20136;-92
2023/04/25 07:45:52;;;;;;;8.60;1.60;;;7.80;99.90;;;;;;4868336;29;20041;-92
2023/04/25 07:48:39;;;;;;;11.40;1.58;;;7.80;99.90;;;;;;4832091;29;20183;-91
2023/04/25 07:51:19;;;;;;;;;;;;;;;;;;;;;
2023/04/25 07:53:51;;;;;;;10.23;1.55;;;7.60;99.90;;;;;;4856732;29;20208;-93
2023/04/25 07:56:20;;;;;;;13.77;1.77;;;7.60;99.90;;;;;;4859633;29;20108;-94
2023/04/25 07:58:51;;;;;;;15.85;2.13;;;6.90;99.90;;;;;;4846928;29;20105;-93
2023/04/25 08:01:46;;;;;;;10.75;2.20;;;7.50;99.90;;;;;;4863275;29;20048;-93
2023/04/25 08:04:12;;;;;;;12.15;2.00;;;7.70;99.90;;;;;;4858951;29;20052;-92
2023/04/25 08:06:38;;;;;;;10.05;1.50;;;7.70;99.90;;;;;;4845935;29;20045;-93
2023/04/25 08:09:04;;;;;;;9.20;1.20;;;7.90;99.90;;;;;;4845102;29;20049;-92
2023/04/25 08:11:32;;;;;;;10.95;1.67;;;8.10;99.90;;;;;;4854870;29;20053;-93
2023/04/25 08:14:15;;;;;;;7.45;1.45;;;8.20;99.90;;;;;;4862521;29;20054;-92
2023/04/25 08:16:41;;;;;;;17.75;1.45;;;8.40;99.90;;;;;;4856970;29;20423;-93
2023/04/25 08:19:13;;;;;;;8.65;1.15;;;8.10;99.90;;;;;;4859159;29;20100;-93
2023/04/25 08:21:41;;;;;;;7.88;1.90;;;7.60;99.90;;;;;;4845700;29;20056;-95
2023/04/25 08:24:28;;;;;;;6.10;1.33;;;7.10;99.90;;;;;;4856336;29;20517;-93
2023/04/25 08:26:58;;;;;;;10.00;1.20;;;6.60;99.90;;;;;;4848029;29;20107;-93
2023/04/25 08:29:56;;;;;;;5.07;0.90;;;7.30;99.90;;;;;;4845511;29;20044;-94
2023/04/25 08:32:22;;;;;;;7.07;0.98;;;6.40;99.90;;;;;;4857494;29;20077;-93
2023/04/25 08:35:06;;;;;;;11.48;1.00;;;6.40;99.90;;;;;;4845819;29;20117;-92
2023/04/25 08:37:34;;;;;;;7.05;1.17;;;6.50;99.90;;;;;;4845415;29;20040;-92
2023/04/25 08:40:17;;;;;;;;;;;;;;;;;;;;;
2023/04/25 08:42:51;;;;;;;5.80;0.85;;;6.80;99.90;;;;;;4865789;29;20295;-92
2023/04/25 08:45:41;;;;;;;4.95;1.02;;;7.00;99.90;;;;;;4840216;29;20044;-96
2023/04/25 08:48:20;;;;;;;;;;;;;;;;;;;;;
2023/04/25 08:51:04;;;;;;;;;;;;;;;;;;;;;
2023/04/25 08:53:42;;;;;;;6.25;0.98;;;7.40;99.90;;;;;;4862530;29;20104;-89
2023/04/25 08:56:09;;;;;;;9.00;1.50;;;7.60;99.90;;;;;;4842425;29;20106;-91
2023/04/25 08:58:36;;;;;;;10.45;1.45;;;7.80;99.90;;;;;;4839221;29;20048;-95
2023/04/25 09:01:03;;;;;;;7.28;1.30;;;7.60;99.90;;;;;;4840680;29;20053;-92
2023/04/25 09:03:29;;;;;;;7.93;1.55;;;7.80;99.90;;;;;;4848596;29;20056;-93
2023/04/25 09:05:55;;;;;;;5.35;1.20;;;8.10;99.90;;;;;;4847960;29;20045;-91
2023/04/25 09:08:23;;;;;;;15.40;1.60;;;8.10;99.90;;;;;;4849534;29;20045;-91
2023/04/25 09:10:51;;;;;;;13.65;1.83;;;8.20;99.90;;;;;;4845439;29;20466;-91
2023/04/25 09:13:27;;;;;;;16.80;1.52;;;8.50;99.90;;;;;;4847263;29;20105;-92
2023/04/25 09:15:56;;;;;;;9.70;1.42;;;8.90;99.90;;;;;;4842506;29;20052;-92
2023/04/25 09:18:29;;;;;;;11.30;1.98;;;9.10;99.90;;;;;;4842944;29;20049;-91
2023/04/25 09:20:58;;;;;;;22.88;3.40;;;9.40;99.90;;;;;;4852279;29;20057;-91
2023/04/25 09:23:24;;;;;;;15.63;1.65;;;9.50;99.90;;;;;;4829450;29;20626;-90
2023/04/25 09:25:52;;;;;;;14.70;1.63;;;10.00;99.90;;;;;;4841856;29;20101;-89
2023/04/25 09:28:26;;;;;;;11.23;1.80;;;9.50;99.90;;;;;;4839922;29;20049;-88
2023/04/25 09:30:57;;;;;;;10.70;1.73;;;9.60;99.90;;;;;;4833267;29;20113;-89
2023/04/25 09:33:29;;;;;;;7.30;1.25;;;9.40;99.90;;;;;;4853618;29;20037;-92
2023/04/25 09:36:03;;;;;;;7.45;1.02;;;9.00;99.90;;;;;;4839284;29;20117;-91
2023/04/25 09:38:32;;;;;;;9.23;1.20;;;8.40;99.90;;;;;;4841915;29;20160;-92
2023/04/25 09:40:58;;;;;;;12.30;1.60;;;8.20;99.90;;;;;;4842327;29;20058;-91
2023/04/25 09:43:25;;;;;;;9.55;2.08;;;8.00;99.90;;;;;;4848050;29;20045;-91
2023/04/25 09:45:57;;;;;;;6.78;1.30;;;7.90;99.90;;;;;;4847711;29;20060;-89
2023/04/25 09:48:24;;;;;;;12.52;1.58;;;7.90;99.90;;;;;;4848747;29;20041;-90
2023/04/25 09:51:10;;;;;;;14.20;2.20;;;8.50;99.90;;;;;;4846679;29;20073;-90
2023/04/25 09:53:38;;;;;;;6.75;1.40;;;8.20;99.90;;;;;;4841727;29;20058;-89
2023/04/25 09:56:07;;;;;;;10.63;1.42;;;8.50;99.90;;;;;;4842321;29;20059;-88
2023/04/25 09:58:33;;;;;;;13.15;2.03;;;9.00;99.90;;;;;;4841214;29;20046;-89
2023/04/25 10:01:02;;;;;;;14.38;2.08;;;9.10;99.90;;;;;;4829479;29;20049;-89
2023/04/25 10:03:31;;;;;;;8.82;1.70;;;9.30;99.90;;;;;;4830600;29;20510;-91
2023/04/25 10:05:59;;;;;;;11.43;1.92;;;9.50;99.90;;;;;;4840416;29;20042;-90
2023/04/25 10:08:30;;;;;;;9.82;1.60;;;9.60;99.90;;;;;;4850125;29;20041;-90
2023/04/25 10:10:58;;;;;;;12.00;1.65;;;9.70;99.90;;;;;;4848679;29;20038;-91
2023/04/25 10:13:24;;;;;;;13.90;2.33;;;9.80;99.90;;;;;;4845052;29;20049;-90
2023/04/25 10:15:53;;;;;;;14.27;1.80;;;9.70;99.90;;;;;;4844497;29;20132;-89
2023/04/25 10:18:19;;;;;;;5.72;1.10;;;9.80;99.90;;;;;;4848308;29;20418;-89
2023/04/25 10:20:45;;;;;;;10.00;1.23;;;9.30;99.90;;;;;;4843111;29;20483;-87
2023/04/25 10:23:15;;;;;;;11.27;1.83;;;8.70;99.90;;;;;;4845410;29;20138;-88
2023/04/25 10:25:41;;;;;;;7.43;1.10;;;8.20;99.90;;;;;;4843337;29;20049;-88
2023/04/25 10:28:07;;;;;;;13.43;1.75;;;7.90;99.90;;;;;;4846028;29;20059;-87
2023/04/25 10:30:33;;;;;;;16.00;2.20;;;7.60;99.90;;;;;;4849627;29;20104;-87
2023/04/25 10:32:59;;;;;;;14.02;1.63;;;7.50;99.90;;;;;;4855648;29;20097;-87
2023/04/25 10:35:30;;;;;;;12.07;1.52;;;7.40;99.90;;;;;;4850978;29;20049;-88
2023/04/25 10:38:05;;;;;;;12.52;1.83;;;7.50;99.90;;;;;;4844520;29;20143;-88
2023/04/25 10:40:32;;;;;;;14.75;1.98;;;7.80;99.90;;;;;;4824014;29;20081;-88
2023/04/25 10:43:29;;;;;;;12.35;1.52;;;8.80;99.90;;;;;;4825524;29;20062;-86
2023/04/25 10:45:55;;;;;;;14.90;2.15;;;8.60;99.90;;;;;;4824232;29;20081;-88
2023/04/25 10:48:26;;;;;;;16.65;2.38;;;9.10;99.90;;;;;;4824652;29;20085;-88
2023/04/25 10:51:07;;;;;;;9.82;1.70;;;9.50;99.90;;;;;;4824700;29;20208;-88
2023/04/25 10:53:34;;;;;;;7.95;1.52;;;9.70;99.90;;;;;;4816070;29;20037;-87
2023/04/25 10:55:59;;;;;;;8.50;1.42;;;9.40;99.90;;;;;;4826296;29;20518;-87
2023/04/25 10:58:26;;;;;;;6.80;1.25;;;9.10;99.90;;;;;;4834901;29;20046;-87
2023/04/25 11:00:52;;;;;;;7.88;1.40;;;8.80;99.90;;;;;;4835985;29;20147;-87
2023/04/25 11:03:22;;;;;;;5.95;1.30;;;8.50;99.90;;;;;;4845329;29;20566;-86
2023/04/25 11:05:49;;;;;;;14.25;1.73;;;8.80;99.90;;;;;;4826607;29;20049;-87
2023/04/25 11:08:27;;;;;;;8.80;1.60;;;8.30;99.90;;;;;;4829572;29;20058;-88
2023/04/25 11:10:53;;;;;;;14.23;1.65;;;8.50;99.90;;;;;;4839516;29;20064;-88
2023/04/25 11:13:20;;;;;;;14.10;1.73;;;8.80;99.90;;;;;;4817624;29;20045;-91
2023/04/25 11:15:51;;;;;;;16.10;2.88;;;9.20;99.90;;;;;;4825949;29;20050;-90
2023/04/25 11:18:18;;;;;;;13.07;1.65;;;9.60;99.90;;;;;;4836802;29;20049;-89
2023/04/25 11:20:44;;;;;;;6.47;1.23;;;9.80;99.90;;;;;;4832040;29;20073;-90
2023/04/25 11:23:10;;;;;;;6.90;1.17;;;9.70;99.90;;;;;;4846858;29;20088;-91
2023/04/25 11:25:36;;;;;;;8.88;1.40;;;9.60;99.90;;;;;;4851646;29;20046;-91
2023/04/25 11:28:02;;;;;;;4.45;1.00;;;9.50;99.90;;;;;;4825833;29;20054;-91
2023/04/25 11:30:30;;;;;;;7.65;1.20;;;9.60;99.90;;;;;;4825090;29;20107;-92
2023/04/25 11:32:56;;;;;;;12.25;1.50;;;9.60;99.90;;;;;;4813586;29;20047;-92
2023/04/25 11:35:22;;;;;;;11.05;1.30;;;9.70;99.90;;;;;;4824837;29;20052;-90
2023/04/25 11:37:49;;;;;;;18.70;1.63;;;9.80;99.90;;;;;;4830347;29;20487;-92
2023/04/25 11:40:15;;;;;;;9.73;1.60;;;9.70;99.90;;;;;;4842424;29;20061;-90
2023/04/25 11:42:46;;;;;;;9.68;2.20;;;9.50;99.90;;;;;;4842765;29;20060;-90
2023/04/25 11:45:13;;;;;;;11.63;1.58;;;9.60;99.90;;;;;;4843559;29;20379;-91
2023/04/25 11:47:38;;;;;;;13.95;2.17;;;9.50;99.90;;;;;;4842823;29;20546;-91
2023/04/25 11:50:07;;;;;;;17.33;2.08;;;9.70;99.90;;;;;;4843248;29;20045;-90
2023/04/25 11:52:39;;;;;;;15.48;2.10;;;9.80;99.90;;;;;;4849002;29;20045;-92
2023/04/25 11:55:08;;;;;;;8.48;1.33;;;9.90;99.90;;;;;;4848228;29;20105;-92
2023/04/25 11:57:34;;;;;;;10.57;1.48;;;10.00;99.90;;;;;;4841472;29;20076;-93
2023/04/25 12:00:10;;;;;;;12.15;1.52;;;10.00;99.90;;;;;;4843353;29;20593;-92
2023/04/25 12:02:36;;;;;;;10.27;1.55;;;10.10;99.90;;;;;;4854248;29;20044;-91
2023/04/25 12:05:03;;;;;;;8.65;1.45;;;10.20;99.90;;;;;;4842192;29;20052;-91
2023/04/25 12:07:30;;;;;;;9.77;1.77;;;10.00;99.90;;;;;;4843442;29;20061;-90
2023/04/25 12:09:55;;;;;;;11.10;1.50;;;9.90;99.90;;;;;;4843229;29;20081;-91
2023/04/25 12:12:21;;;;;;;11.95;1.90;;;10.00;99.90;;;;;;4842491;29;20084;-92
2023/04/25 12:14:48;;;;;;;10.23;1.65;;;10.30;99.90;;;;;;4843509;29;20057;-92
2023/04/25 12:17:15;;;;;;;8.43;1.60;;;10.60;99.90;;;;;;4847798;29;20047;-92
2023/04/25 12:19:40;;;;;;;11.25;1.40;;;10.90;99.90;;;;;;4849463;29;20108;-93
2023/04/25 12:22:20;;;;;;;12.45;1.52;;;11.00;99.90;;;;;;4846168;29;20402;-93
2023/04/25 12:24:46;;;;;;;15.18;1.75;;;10.70;99.90;;;;;;4848340;29;20117;-93
2023/04/25 12:27:16;;;;;;;7.63;1.48;;;10.60;99.90;;;;;;4835701;29;20054;-92
2023/04/25 12:29:56;;;;;;;7.65;1.35;;;10.50;99.90;;;;;;4837755;29;20097;-91
2023/04/25 12:32:22;;;;;;;11.27;1.48;;;10.40;99.90;;;;;;4842613;29;20101;-93
2023/04/25 12:34:48;;;;;;;12.32;1.40;;;10.60;99.90;;;;;;4856173;29;20102;-92
2023/04/25 12:37:15;;;;;;;8.93;1.60;;;10.60;99.90;;;;;;4845829;29;20140;-92
2023/04/25 12:39:41;;;;;;;11.68;1.55;;;10.30;99.90;;;;;;4842905;29;20057;-92
2023/04/25 12:42:07;;;;;;;12.18;1.65;;;9.80;99.90;;;;;;4842477;29;20045;-92
2023/04/25 12:44:34;;;;;;;13.20;2.25;;;9.60;99.90;;;;;;4851821;29;20049;-93
2023/04/25 12:46:59;;;;;;;15.60;1.85;;;9.60;99.90;;;;;;4841623;29;20045;-92
2023/04/25 12:49:25;;;;;;;14.25;2.30;;;9.40;99.90;;;;;;4841598;29;20038;-91
2023/04/25 12:51:51;;;;;;;11.90;1.90;;;9.70;99.90;;;;;;4838791;29;20041;-91
2023/04/25 12:54:17;;;;;;;11.20;1.40;;;9.40;99.90;;;;;;4838260;29;20406;-94
2023/04/25 12:56:43;;;;;;;9.77;1.27;;;9.50;99.90;;;;;;4834813;29;20041;-93
2023/04/25 12:59:09;;;;;;;7.57;1.48;;;9.50;99.90;;;;;;4842227;29;20102;-92
2023/04/25 13:01:35;;;;;;;12.70;1.35;;;9.50;99.90;;;;;;4852270;29;20076;-93
2023/04/25 13:04:01;;;;;;;9.07;1.25;;;9.50;99.90;;;;;;4845965;29;20113;-93
2023/04/25 13:06:27;;;;;;;10.07;1.27;;;9.70;99.90;;;;;;4841988;29;20506;-93
2023/04/25 13:08:52;;;;;;;14.23;1.83;;;9.90;99.90;;;;;;4843545;29;20045;-95
2023/04/25 13:11:18;;;;;;;10.38;1.60;;;10.20;99.90;;;;;;4859610;29;20048;-93
2023/04/25 13:13:44;;;;;;;10.93;2.05;;;10.10;99.90;;;;;;4853438;29;20052;-94
2023/04/25 13:16:11;;;;;;;7.72;1.58;;;9.70;99.90;;;;;;4841261;29;20491;-95
2023/04/25 13:18:36;;;;;;;11.07;1.30;;;9.60;99.90;;;;;;4835429;29;20047;-94
2023/04/25 13:21:03;;;;;;;11.02;1.50;;;9.70;99.90;;;;;;4840052;29;20133;-95
2023/04/25 13:23:30;;;;;;;9.13;1.20;;;9.80;99.90;;;;;;4843082;29;20140;-93
2023/04/25 13:25:57;;;;;;;9.43;1.38;;;9.90;99.90;;;;;;4843117;29;20056;-94
2023/04/25 13:28:24;;;;;;;8.40;1.63;;;10.00;99.90;;;;;;4853062;29;20802;-92
2023/04/25 13:30:51;;;;;;;8.73;1.25;;;10.20;99.90;;;;;;4842875;29;20102;-93
2023/04/25 13:33:17;;;;;;;9.93;1.50;;;10.00;99.90;;;;;;4842462;29;20493;-93
2023/04/25 13:35:46;;;;;;;14.07;2.10;;;9.90;99.90;;;;;;4847570;29;20046;-91
2023/04/25 13:38:13;;;;;;;9.52;1.50;;;9.90;99.90;;;;;;4843459;29;20057;-93
2023/04/25 13:40:38;;;;;;;13.98;1.85;;;9.80;99.90;;;;;;4854912;29;20132;-94